Time;durP1;ratioP1;P1;durP2;ratioP2;P2;SDS_P1;SDS_P2;PMS_P1;PMS_P2;Temp;Humidity;BMP_temperature;BMP_pressure;BME280_temperature;BME280_humidity;BME280_pressure;Samples;Min_cycle;Max_cycle;Signal;HPM_P1;HPM_P2
2021/08/09 00:00:47;;;;;;;2.40;1.80;;;;;;;19.48;57.42;97160.34;126839;1093;62743;-57
2021/08/09 00:03:23;;;;;;;2.10;1.77;;;;;;;19.44;57.57;97158.21;126910;1095;62619;-54
2021/08/09 00:05:50;;;;;;;2.40;1.80;;;;;;;19.41;57.59;97171.80;126876;1095;62601;-50
2021/08/09 00:08:18;;;;;;;2.30;2.10;;;;;;;19.39;57.65;97168.51;126884;1094;62696;-52
2021/08/09 00:10:45;;;;;;;2.60;1.93;;;;;;;19.37;57.95;97163.39;126940;1095;62724;-50
2021/08/09 00:13:12;;;;;;;2.77;1.90;;;;;;;19.34;57.90;97164.55;126854;1095;62610;-50
2021/08/09 00:15:39;;;;;;;2.53;1.77;;;;;;;19.32;57.95;97163.91;127059;1095;62559;-52
2021/08/09 00:18:06;;;;;;;2.20;1.90;;;;;;;19.31;58.04;97169.36;127012;1095;62591;-52
2021/08/09 00:20:33;;;;;;;2.57;1.93;;;;;;;19.28;58.23;97172.38;126845;1095;62682;-52
2021/08/09 00:23:00;;;;;;;2.80;2.10;;;;;;;19.25;58.30;97176.17;126898;1095;62705;-54
2021/08/09 00:25:27;;;;;;;2.60;1.90;;;;;;;19.25;58.33;97170.05;126846;1095;62764;-53
2021/08/09 00:27:54;;;;;;;2.20;1.83;;;;;;;19.22;58.55;97168.56;126977;1093;62607;-53
2021/08/09 00:30:21;;;;;;;3.43;1.90;;;;;;;19.18;58.70;97175.23;126846;1094;62610;-55
2021/08/09 00:32:48;;;;;;;2.60;1.87;;;;;;;19.16;58.84;97177.20;126846;1095;63066;-55
2021/08/09 00:35:15;;;;;;;1.93;1.63;;;;;;;19.14;58.73;97187.16;126949;1095;62700;-53
2021/08/09 00:37:42;;;;;;;2.53;1.80;;;;;;;19.11;58.92;97187.49;127036;1095;62696;-51
2021/08/09 00:40:09;;;;;;;3.37;2.03;;;;;;;19.10;58.90;97187.67;126925;1095;62591;-53
2021/08/09 00:42:36;;;;;;;2.30;1.87;;;;;;;19.07;59.16;97188.83;126925;1095;62613;-52
2021/08/09 00:45:04;;;;;;;2.70;2.10;;;;;;;19.04;59.15;97195.30;126956;1095;62564;-53
2021/08/09 00:47:31;;;;;;;2.53;1.77;;;;;;;19.02;59.09;97191.16;126909;1095;62610;-52
2021/08/09 00:49:58;;;;;;;2.67;1.83;;;;;;;19.02;59.20;97201.75;126880;1095;62620;-53
2021/08/09 00:52:25;;;;;;;2.50;2.00;;;;;;;19.00;59.34;97199.28;126850;1095;62553;-52
2021/08/09 00:54:52;;;;;;;2.50;2.00;;;;;;;18.99;59.29;97194.14;126859;1095;62613;-54
2021/08/09 00:57:19;;;;;;;1.97;1.70;;;;;;;18.99;59.47;97196.78;126642;1095;62597;-52
2021/08/09 00:59:46;;;;;;;3.13;1.93;;;;;;;18.98;59.33;97189.84;127098;1093;62703;-53
2021/08/09 01:02:13;;;;;;;2.10;1.90;;;;;;;18.98;59.43;97195.14;127062;1095;62601;-52
2021/08/09 01:04:40;;;;;;;2.33;2.03;;;;;;;18.95;59.47;97192.81;127061;1095;62555;-50
2021/08/09 01:07:07;;;;;;;2.80;2.10;;;;;;;18.95;59.63;97198.12;127024;1095;62627;-51
2021/08/09 01:09:44;;;;;;;2.67;2.13;;;;;;;18.93;59.52;97200.94;126917;1095;62645;-53
2021/08/09 01:12:16;;;;;;;2.87;2.10;;;;;;;18.93;59.63;97202.77;126898;1095;62613;-58
2021/08/09 01:15:02;;;;;;;2.73;2.00;;;;;;;18.91;59.69;97205.59;127025;1095;62614;-59
2021/08/09 01:17:32;;;;;;;2.50;1.90;;;;;;;18.89;59.89;97206.75;126993;1095;62559;-61
2021/08/09 01:20:02;;;;;;;2.87;2.00;;;;;;;18.87;59.99;97198.98;127015;1095;62838;-59
2021/08/09 01:22:42;;;;;;;2.30;2.10;;;;;;;18.85;59.83;97200.95;126973;1095;62585;-50
2021/08/09 01:25:26;;;;;;;2.83;2.07;;;;;;;18.82;59.75;97204.78;126855;1095;62741;-50
2021/08/09 01:27:53;;;;;;;2.83;1.97;;;;;;;18.80;59.78;97204.11;127058;1095;62760;-50
2021/08/09 01:30:20;;;;;;;2.60;1.80;;;;;;;18.78;59.85;97207.94;126977;1094;62678;-55
2021/08/09 01:32:47;;;;;;;2.60;2.03;;;;;;;18.76;60.09;97201.96;126931;1095;62611;-53
2021/08/09 01:35:15;;;;;;;3.57;2.00;;;;;;;18.74;59.90;97198.67;126959;1095;62678;-52
2021/08/09 01:37:44;;;;;;;3.40;2.17;;;;;;;18.71;60.08;97205.11;126996;1095;62568;-51
2021/08/09 01:40:11;;;;;;;3.15;2.10;;;;;;;18.68;60.03;97208.08;127119;1093;62651;-54
2021/08/09 01:42:40;;;;;;;3.50;2.17;;;;;;;18.67;60.00;97208.23;126974;1095;62585;-50
2021/08/09 01:45:08;;;;;;;2.93;1.97;;;;;;;18.63;60.06;97204.29;127111;1095;62559;-57
2021/08/09 01:47:35;;;;;;;2.67;2.07;;;;;;;18.62;60.24;97200.78;126895;1095;62617;-54
2021/08/09 01:50:03;;;;;;;2.47;1.90;;;;;;;18.60;60.23;97205.44;126945;1095;62697;-52
2021/08/09 01:52:30;;;;;;;3.27;2.30;;;;;;;18.58;60.14;97194.20;126855;1093;62750;-52
2021/08/09 01:54:57;;;;;;;2.27;1.90;;;;;;;18.56;60.23;97206.75;126994;1093;62647;-55
2021/08/09 01:57:25;;;;;;;2.50;1.93;;;;;;;18.55;60.41;97208.58;127047;1095;62654;-56
2021/08/09 01:59:52;;;;;;;2.17;1.80;;;;;;;18.53;60.54;97207.08;126924;1095;62662;-53
2021/08/09 02:02:29;;;;;;;2.63;1.77;;;;;;;18.51;60.57;97214.38;126953;1095;62780;-54
2021/08/09 02:05:02;;;;;;;2.57;1.97;;;;;;;18.48;60.49;97210.22;126931;1095;62610;-51
2021/08/09 02:07:29;;;;;;;3.10;1.80;;;;;;;18.48;60.67;97212.05;127053;1095;62614;-53
2021/08/09 02:09:56;;;;;;;2.25;1.90;;;;;;;18.44;60.62;97213.37;127067;1095;62615;-51
2021/08/09 02:12:23;;;;;;;2.87;2.13;;;;;;;18.42;60.84;97216.19;126857;1095;62610;-57
2021/08/09 02:14:52;;;;;;;2.77;2.20;;;;;;;18.40;60.92;97231.42;126778;1095;63029;-54
2021/08/09 02:17:32;;;;;;;2.65;2.05;;;;;;;18.39;60.95;97231.56;126679;1095;62610;-51
2021/08/09 02:20:08;;;;;;;2.47;1.57;;;;;;;18.37;60.99;97228.27;126913;1095;62562;-52
2021/08/09 02:22:42;;;;;;;3.30;2.27;;;;;;;18.35;60.95;97238.17;127074;1095;62626;-54
2021/08/09 02:25:12;;;;;;;3.20;2.00;;;;;;;18.32;60.86;97253.40;126969;1094;63273;-54
2021/08/09 02:27:47;;;;;;;2.05;1.85;;;;;;;18.32;60.89;97301.03;126885;1095;62611;-51
2021/08/09 02:30:18;;;;;;;2.97;2.10;;;;;;;18.33;61.07;97402.41;126925;1095;62742;-52
2021/08/09 02:32:45;;;;;;;3.37;2.10;;;;;;;18.30;61.14;97381.55;126855;1095;62632;-51
2021/08/09 02:35:15;;;;;;;2.67;2.10;;;;;;;18.30;61.02;97361.23;126977;1095;62577;-53
2021/08/09 02:37:43;;;;;;;3.07;2.17;;;;;;;18.30;60.92;97363.88;126985;1095;62626;-50
2021/08/09 02:40:11;;;;;;;3.27;2.33;;;;;;;18.35;60.86;97399.59;126924;1095;62559;-50
2021/08/09 02:42:38;;;;;;;3.10;2.17;;;;;;;18.38;60.67;97378.93;127061;1095;62609;-53
2021/08/09 02:45:05;;;;;;;2.87;2.10;;;;;;;18.44;60.56;97377.45;126942;1095;62617;-55
2021/08/09 02:47:37;;;;;;;2.43;1.90;;;;;;;18.51;60.29;97394.36;126937;1095;62618;-53
2021/08/09 02:50:05;;;;;;;2.60;2.40;;;;;;;18.59;60.37;97397.03;126894;1095;62614;-53
2021/08/09 02:52:32;;;;;;;2.40;1.90;;;;;;;18.67;60.22;97402.31;126884;1095;62620;-55
2021/08/09 02:55:00;;;;;;;3.17;2.30;;;;;;;18.74;60.17;97406.02;126972;1095;62569;-58
2021/08/09 02:57:28;;;;;;;3.93;2.53;;;;;;;18.83;60.09;97405.04;126903;1093;62619;-52
2021/08/09 02:59:55;;;;;;;3.80;2.40;;;;;;;18.92;59.88;97407.70;126603;1095;62650;-55
2021/08/09 03:02:22;;;;;;;3.00;2.37;;;;;;;19.00;60.11;97418.31;126866;1094;62614;-52
2021/08/09 03:04:49;;;;;;;3.53;2.80;;;;;;;19.08;60.05;97420.95;126548;1095;62674;-50
2021/08/09 03:07:16;;;;;;;3.47;2.70;;;;;;;19.15;60.26;97435.20;127098;1095;62652;-48
2021/08/09 03:09:43;;;;;;;3.20;2.53;;;;;;;19.23;60.18;97445.82;126945;1095;62585;-52
2021/08/09 03:12:12;;;;;;;3.60;2.73;;;;;;;19.31;60.31;97456.40;126973;1095;62613;-48
2021/08/09 03:14:39;;;;;;;3.63;3.00;;;;;;;19.39;60.22;97468.84;126946;1095;62649;-50
2021/08/09 03:17:06;;;;;;;3.27;2.70;;;;;;;19.46;60.13;97469.84;126835;1095;62674;-51
2021/08/09 03:19:33;;;;;;;3.90;2.97;;;;;;;19.53;60.20;97472.64;126908;1095;62607;-49
2021/08/09 03:22:00;;;;;;;2.80;2.30;;;;;;;19.59;60.00;97469.32;126953;1095;62595;-50
2021/08/09 03:24:28;;;;;;;2.93;2.23;;;;;;;19.64;60.01;97467.02;127033;1095;62561;-53
2021/08/09 03:26:55;;;;;;;3.43;2.83;;;;;;;19.68;59.83;97473.66;126986;1095;62921;-57
2021/08/09 03:29:22;;;;;;;3.70;2.57;;;;;;;19.72;59.65;97477.63;126969;1095;62705;-59
2021/08/09 03:31:51;;;;;;;4.30;2.60;;;;;;;19.77;59.72;97490.39;127098;1095;62610;-55
2021/08/09 03:34:18;;;;;;;3.38;2.50;;;;;;;19.80;59.66;97493.55;126943;1095;62613;-54
2021/08/09 03:36:46;;;;;;;15.97;9.83;;;;;;;19.82;59.66;97504.80;126887;1093;62626;-52
2021/08/09 03:39:14;;;;;;;14.70;7.95;;;;;;;19.86;59.77;97512.44;126859;1095;62702;-52
2021/08/09 03:41:40;;;;;;;21.93;11.97;;;;;;;19.91;59.73;97515.41;126920;1094;62670;-53
2021/08/09 03:44:07;;;;;;;20.90;12.40;;;;;;;19.94;59.50;97520.39;126972;1095;62565;-52
2021/08/09 03:46:34;;;;;;;14.27;9.00;;;;;;;19.99;59.45;97518.06;127028;1095;62645;-53
2021/08/09 03:49:07;;;;;;;15.87;9.60;;;;;;;20.05;59.38;97512.06;126981;1095;62629;-52
2021/08/09 03:51:38;;;;;;;14.63;9.03;;;;;;;20.09;59.35;97514.22;127049;1093;62652;-55
2021/08/09 03:54:05;;;;;;;13.53;8.87;;;;;;;20.15;59.48;97512.70;126958;1093;62681;-50
2021/08/09 03:56:33;;;;;;;10.00;6.33;;;;;;;20.21;59.40;97506.74;126864;1095;62703;-52
2021/08/09 03:59:00;;;;;;;11.50;6.50;;;;;;;20.26;59.38;97506.23;126917;1094;62607;-52
2021/08/09 04:01:27;;;;;;;8.70;5.50;;;;;;;20.31;59.25;97507.38;126907;1095;62615;-51
2021/08/09 04:03:54;;;;;;;8.07;4.87;;;;;;;20.36;59.17;97501.55;126904;1093;62620;-50
2021/08/09 04:06:21;;;;;;;6.17;3.73;;;;;;;20.42;59.12;97519.44;126985;1095;62703;-51
2021/08/09 04:08:51;;;;;;;5.30;3.70;;;;;;;20.47;59.07;97532.20;127031;1093;62713;-50
2021/08/09 04:11:18;;;;;;;3.73;3.30;;;;;;;20.50;58.83;97539.87;127043;1094;62610;-54
2021/08/09 04:13:45;;;;;;;4.90;3.50;;;;;;;20.53;58.94;97540.36;127073;1095;62620;-53
2021/08/09 04:16:12;;;;;;;4.03;3.13;;;;;;;20.56;58.89;97532.03;126934;1093;62623;-52
2021/08/09 04:18:39;;;;;;;5.60;2.97;;;;;;;20.59;58.88;97525.56;126952;1095;62614;-54
2021/08/09 04:21:06;;;;;;;4.13;2.90;;;;;;;20.64;59.01;97515.25;126976;1095;62817;-51
2021/08/09 04:23:33;;;;;;;3.20;2.65;;;;;;;20.70;59.08;97497.79;127071;1095;62610;-51
2021/08/09 04:26:00;;;;;;;4.03;3.27;;;;;;;20.76;59.07;97508.57;127053;1095;62986;-53
2021/08/09 04:28:27;;;;;;;4.80;3.20;;;;;;;20.83;58.95;97514.83;127084;1095;62599;-52
2021/08/09 04:30:54;;;;;;;4.03;3.40;;;;;;;20.91;59.01;97515.80;127070;1095;62678;-55
2021/08/09 04:33:21;;;;;;;4.07;2.83;;;;;;;21.01;59.20;97519.06;126886;1095;62683;-55
2021/08/09 04:35:48;;;;;;;5.10;2.97;;;;;;;21.11;58.95;97522.32;126844;1093;62613;-53
2021/08/09 04:38:15;;;;;;;4.63;2.93;;;;;;;21.19;58.91;97511.65;126846;1095;62585;-52
2021/08/09 04:40:42;;;;;;;3.53;3.03;;;;;;;21.31;58.85;97504.97;126858;1095;62567;-52
2021/08/09 04:43:09;;;;;;;2.50;2.30;;;;;;;21.44;58.84;97512.33;126822;1093;62672;-62
2021/08/09 04:45:36;;;;;;;3.33;3.03;;;;;;;21.56;58.80;97512.75;126983;1095;62629;-64
2021/08/09 04:48:04;;;;;;;3.63;2.80;;;;;;;21.71;58.48;97499.48;126934;1093;62617;-62
2021/08/09 04:50:31;;;;;;;2.90;2.60;;;;;;;21.86;58.24;97487.89;126889;1095;62598;-62
2021/08/09 04:52:58;;;;;;;3.37;3.07;;;;;;;21.99;58.08;97481.92;126892;1093;62602;-62
2021/08/09 04:55:25;;;;;;;3.47;2.87;;;;;;;22.13;57.69;97479.49;126974;1095;62616;-63
2021/08/09 04:57:52;;;;;;;4.07;3.60;;;;;;;22.25;57.37;97491.35;127060;1095;62609;-62
2021/08/09 05:00:19;;;;;;;3.30;2.90;;;;;;;22.38;57.66;97498.70;126998;1095;62677;-62
2021/08/09 05:02:45;;;;;;;4.47;2.90;;;;;;;22.50;57.11;97516.68;127089;1095;62629;-63
2021/08/09 05:05:12;;;;;;;3.90;3.03;;;;;;;22.61;56.88;97516.23;126879;1093;63079;-63
2021/08/09 05:07:39;;;;;;;3.27;2.83;;;;;;;22.72;56.87;97516.77;126857;1094;62799;-62
2021/08/09 05:10:07;;;;;;;3.43;2.53;;;;;;;22.79;56.79;97510.52;126885;1095;62838;-64
2021/08/09 05:12:34;;;;;;;3.07;2.50;;;;;;;22.86;56.54;97505.26;126976;1093;62597;-62
2021/08/09 05:15:02;;;;;;;3.70;3.00;;;;;;;22.91;56.32;97494.06;127030;1095;62578;-62
2021/08/09 05:17:29;;;;;;;3.57;3.23;;;;;;;22.97;56.44;97501.30;126853;1094;62614;-62
2021/08/09 05:19:56;;;;;;;3.20;2.90;;;;;;;23.03;56.15;97496.06;127083;1095;62669;-62
2021/08/09 05:22:23;;;;;;;3.60;3.00;;;;;;;23.10;55.97;97493.45;127054;1093;62726;-62
2021/08/09 05:24:49;;;;;;;3.27;2.90;;;;;;;23.17;55.96;97494.37;126916;1095;62626;-62
2021/08/09 05:27:17;;;;;;;2.97;2.60;;;;;;;23.22;55.61;97486.63;127013;1093;62575;-63
2021/08/09 05:29:44;;;;;;;3.37;2.47;;;;;;;23.29;55.83;97505.34;126990;1095;62545;-64
2021/08/09 05:34:42;;;;;;;3.70;3.00;;;;;;;23.48;55.39;97530.56;127202;1095;62556;-58
2021/08/09 05:37:09;;;;;;;3.10;2.78;;;;;;;23.66;55.47;97546.98;126999;1095;62609;-59
2021/08/09 05:39:36;;;;;;;4.10;3.07;;;;;;;23.84;55.19;97552.70;126875;1095;62555;-59
2021/08/09 05:42:03;;;;;;;3.47;2.90;;;;;;;24.03;54.84;97561.06;126664;1095;62613;-60
2021/08/09 05:44:30;;;;;;;2.90;2.60;;;;;;;24.19;54.31;97549.30;127025;1095;62679;-60
2021/08/09 05:46:57;;;;;;;3.63;2.90;;;;;;;24.27;54.22;97549.16;126945;1094;62620;-60
2021/08/09 05:49:24;;;;;;;3.37;2.60;;;;;;;24.29;54.08;97560.45;126910;1095;62917;-58
2021/08/09 05:51:51;;;;;;;3.20;2.90;;;;;;;24.25;53.78;97599.25;126976;1093;62557;-56
2021/08/09 05:54:18;;;;;;;3.73;2.60;;;;;;;24.17;54.25;97628.77;126970;1095;62604;-58
2021/08/09 05:56:45;;;;;;;3.60;2.70;;;;;;;24.05;54.11;97649.83;126880;1095;62633;-57
2021/08/09 05:59:12;;;;;;;2.93;2.40;;;;;;;23.91;54.56;97632.86;126991;1094;62743;-60
2021/08/09 06:01:39;;;;;;;3.70;2.70;;;;;;;23.76;54.55;97624.92;126923;1093;62604;-57
2021/08/09 06:04:06;;;;;;;2.63;2.43;;;;;;;23.65;54.51;97579.21;126956;1094;62633;-57
2021/08/09 06:06:38;;;;;;;3.37;3.00;;;;;;;;;;126959;1095;62592;-54
2021/08/09 06:09:06;;;;;;;4.07;2.73;;;;;;;23.43;55.21;97468.96;126931;1095;62658;-61
2021/08/09 06:11:33;;;;;;;3.40;3.10;;;;;;;23.31;55.69;97472.16;126903;1093;62607;-62
2021/08/09 06:14:00;;;;;;;3.77;3.13;;;;;;;23.22;56.35;97480.47;126930;1095;62672;-57
2021/08/09 06:16:27;;;;;;;3.50;2.93;;;;;;;23.09;56.82;97489.15;126884;1095;62711;-60
2021/08/09 06:18:54;;;;;;;3.07;2.77;;;;;;;23.00;57.65;97464.44;126871;1095;62620;-60
2021/08/09 06:21:22;;;;;;;3.80;2.90;;;;;;;22.94;57.78;97448.39;127083;1093;62751;-61
2021/08/09 06:23:48;;;;;;;3.30;2.85;;;;;;;22.91;58.39;97424.77;127013;1093;62716;-61
2021/08/09 06:26:15;;;;;;;3.70;3.23;;;;;;;22.88;58.81;97440.11;126990;1095;62607;-61
2021/08/09 06:28:42;;;;;;;3.87;3.00;;;;;;;22.88;59.05;97442.77;126848;1095;62597;-61
2021/08/09 06:31:09;;;;;;;3.40;2.97;;;;;;;22.93;59.17;97428.09;127058;1095;62588;-61
2021/08/09 06:33:36;;;;;;;4.80;3.23;;;;;;;22.97;59.16;97434.67;126929;1095;62650;-58
2021/08/09 06:36:03;;;;;;;3.40;3.10;;;;;;;23.05;59.54;97437.22;126898;1095;62607;-59
2021/08/09 06:38:30;;;;;;;3.50;3.20;;;;;;;23.14;59.34;97425.41;127053;1093;62675;-56
2021/08/09 06:40:57;;;;;;;3.60;3.30;;;;;;;23.24;59.59;97412.58;126895;1093;62624;-61
2021/08/09 06:43:24;;;;;;;3.60;3.10;;;;;;;23.32;59.15;97401.79;126995;1095;62609;-62
2021/08/09 06:45:51;;;;;;;3.40;3.10;;;;;;;23.41;59.08;97410.48;126932;1093;62681;-60
2021/08/09 06:48:18;;;;;;;3.87;2.87;;;;;;;23.51;58.93;97423.48;126996;1095;62983;-58
2021/08/09 06:50:45;;;;;;;3.63;3.13;;;;;;;23.60;58.67;97435.67;126993;1093;62604;-61
2021/08/09 06:53:12;;;;;;;3.70;3.30;;;;;;;23.64;58.77;97442.30;126929;1093;62601;-57
2021/08/09 06:55:39;;;;;;;3.67;3.17;;;;;;;23.67;58.94;97438.44;126954;1095;62607;-59
2021/08/09 06:58:06;;;;;;;3.50;3.20;;;;;;;23.69;58.73;97439.88;126917;1093;62616;-61
2021/08/09 07:00:33;;;;;;;3.40;3.10;;;;;;;23.73;58.57;97435.80;126960;1095;62598;-61
2021/08/09 07:03:07;;;;;;;3.50;3.10;;;;;;;23.75;58.16;97441.76;126839;1095;62625;-63
2021/08/09 07:05:44;;;;;;;4.00;3.30;;;;;;;23.76;58.18;97443.44;126983;1095;62585;-62
2021/08/09 07:08:12;;;;;;;4.23;3.60;;;;;;;23.78;58.29;97456.57;126909;1093;62620;-62
2021/08/09 07:10:39;;;;;;;3.60;3.20;;;;;;;23.78;58.24;97457.39;126969;1093;62616;-64
2021/08/09 07:13:07;;;;;;;3.57;3.27;;;;;;;23.76;58.35;97464.78;126891;1095;62556;-59
2021/08/09 07:15:34;;;;;;;3.60;3.13;;;;;;;23.76;58.39;97455.95;126952;1093;62571;-63
2021/08/09 07:18:00;;;;;;;5.53;4.93;;;;;;;23.76;58.25;97454.11;126960;1095;63041;-62
2021/08/09 07:20:27;;;;;;;3.90;3.50;;;;;;;23.75;58.07;97455.11;126992;1095;62610;-62
2021/08/09 07:22:54;;;;;;;4.00;3.20;;;;;;;23.74;58.33;97461.47;127054;1095;63008;-60
2021/08/09 07:25:22;;;;;;;3.70;3.33;;;;;;;23.74;58.31;97469.47;127072;1094;62552;-61
2021/08/09 07:27:49;;;;;;;4.07;3.60;;;;;;;23.75;58.17;97468.45;127020;1095;62569;-61
2021/08/09 07:30:17;;;;;;;4.60;4.20;;;;;;;23.75;58.30;97455.11;127037;1095;62612;-62
2021/08/09 07:32:44;;;;;;;3.90;3.50;;;;;;;23.77;58.23;97457.59;126917;1093;62552;-63
2021/08/09 07:35:11;;;;;;;3.63;3.33;;;;;;;23.79;58.50;97456.38;126969;1093;62569;-61
2021/08/09 07:37:38;;;;;;;3.50;3.20;;;;;;;23.82;58.17;97464.00;127080;1094;62600;-61
2021/08/09 07:40:06;;;;;;;3.23;2.93;;;;;;;23.84;58.34;97466.47;126925;1095;62592;-59
2021/08/09 07:42:33;;;;;;;3.47;3.17;;;;;;;23.87;58.02;97466.91;126959;1095;62604;-57
2021/08/09 07:45:00;;;;;;;4.73;3.73;;;;;;;23.90;57.88;97468.38;126996;1093;62585;-61
2021/08/09 07:47:27;;;;;;;3.67;3.33;;;;;;;23.95;57.92;97467.80;126903;1095;62642;-59
2021/08/09 07:49:54;;;;;;;3.80;3.50;;;;;;;24.01;58.08;97469.67;127023;1095;63057;-58
2021/08/09 07:52:21;;;;;;;3.53;3.13;;;;;;;24.08;57.51;97474.05;126969;1093;62607;-59
2021/08/09 07:54:48;;;;;;;3.87;3.10;;;;;;;24.14;57.04;97473.26;126909;1095;62607;-59
2021/08/09 07:57:15;;;;;;;4.27;3.37;;;;;;;24.18;57.00;97470.20;126932;1093;63041;-57
2021/08/09 07:59:42;;;;;;;4.30;3.33;;;;;;;24.23;56.87;97473.94;126928;1095;62628;-58
2021/08/09 08:02:09;;;;;;;4.50;3.80;;;;;;;24.33;56.65;97473.58;126954;1093;62727;-59
2021/08/09 08:04:36;;;;;;;3.70;3.13;;;;;;;24.42;56.23;97464.41;126877;1093;62687;-59
2021/08/09 08:07:03;;;;;;;4.40;3.73;;;;;;;24.55;55.92;97469.00;126907;1093;62626;-60
2021/08/09 08:09:30;;;;;;;3.43;3.07;;;;;;;24.68;55.60;97474.38;126936;1095;62595;-61
2021/08/09 08:11:57;;;;;;;3.75;3.20;;;;;;;24.81;55.31;97468.27;127016;1095;62612;-62
2021/08/09 08:14:24;;;;;;;4.13;3.70;;;;;;;24.94;55.22;97467.48;126897;1095;62561;-62
2021/08/09 08:16:51;;;;;;;3.70;3.15;;;;;;;25.06;55.03;97466.71;126911;1095;62614;-59
2021/08/09 08:19:18;;;;;;;4.10;3.70;;;;;;;25.18;54.74;97474.98;127040;1095;62556;-62
2021/08/09 08:21:45;;;;;;;4.00;3.60;;;;;;;25.30;54.63;97467.20;126935;1093;62902;-59
2021/08/09 08:24:12;;;;;;;5.17;3.60;;;;;;;25.44;54.27;97468.05;126678;1095;62578;-56
2021/08/09 08:26:39;;;;;;;3.80;3.40;;;;;;;25.54;53.85;97468.45;126996;1095;62576;-58
2021/08/09 08:29:06;;;;;;;4.10;3.67;;;;;;;25.64;53.68;97475.03;127069;1095;62630;-59
2021/08/09 08:31:33;;;;;;;3.50;3.20;;;;;;;25.74;53.26;97466.59;126926;1093;62607;-61
2021/08/09 08:34:01;;;;;;;3.70;3.23;;;;;;;25.84;52.96;97464.38;126922;1093;62553;-61
2021/08/09 08:36:28;;;;;;;4.10;3.73;;;;;;;25.95;52.93;97465.59;126971;1094;62624;-59
2021/08/09 08:38:56;;;;;;;3.77;3.47;;;;;;;26.03;52.49;97468.06;127027;1095;62761;-62
2021/08/09 08:41:23;;;;;;;4.10;3.53;;;;;;;26.11;52.55;97469.69;126932;1095;62615;-60
2021/08/09 08:43:50;;;;;;;4.10;3.57;;;;;;;26.21;52.13;97466.57;126923;1095;62607;-60
2021/08/09 08:46:18;;;;;;;3.77;3.37;;;;;;;26.27;51.57;97463.89;127011;1095;62595;-60
2021/08/09 08:48:45;;;;;;;4.43;3.47;;;;;;;26.35;51.55;97461.00;126894;1095;62677;-59
2021/08/09 08:51:12;;;;;;;4.30;3.57;;;;;;;26.45;51.19;97465.13;126874;1095;62750;-60
2021/08/09 08:53:39;;;;;;;4.47;4.07;;;;;;;26.54;51.11;97453.13;127004;1095;62980;-58
2021/08/09 08:56:08;;;;;;;3.87;3.47;;;;;;;26.63;50.72;97457.22;126994;1095;62620;-57
2021/08/09 08:58:36;;;;;;;4.05;3.65;;;;;;;26.71;50.48;97454.28;127116;1094;62609;-59
2021/08/09 09:01:03;;;;;;;4.27;3.60;;;;;;;26.80;50.16;97447.64;126999;1095;62614;-60
2021/08/09 09:03:31;;;;;;;3.80;3.40;;;;;;;26.90;49.70;97453.39;127003;1095;62746;-60
2021/08/09 09:06:03;;;;;;;3.83;3.50;;;;;;;27.00;49.46;97452.10;127083;1093;62616;-59
2021/08/09 09:08:40;;;;;;;3.80;3.50;;;;;;;27.09;49.50;97450.84;127055;1095;62604;-60
2021/08/09 09:11:08;;;;;;;3.87;3.47;;;;;;;27.18;49.15;97449.55;127166;1095;62818;-60
2021/08/09 09:13:35;;;;;;;4.23;3.70;;;;;;;27.27;48.69;97436.67;127045;1095;62607;-58
2021/08/09 09:16:10;;;;;;;4.20;3.33;;;;;;;27.38;48.65;97441.35;126811;1095;62727;-59
2021/08/09 09:18:56;;;;;;;3.60;3.27;;;;;;;27.48;48.25;97438.19;127110;1095;62639;-60
2021/08/09 09:21:31;;;;;;;3.37;3.07;;;;;;;27.59;47.72;97429.41;127051;1095;62987;-60
2021/08/09 09:24:07;;;;;;;4.50;3.60;;;;;;;27.70;47.68;97430.58;127019;1093;62604;-60
2021/08/09 09:26:35;;;;;;;4.57;3.27;;;;;;;27.80;47.27;97420.19;126896;1095;62601;-60
2021/08/09 09:29:09;;;;;;;3.33;3.03;;;;;;;27.89;46.77;97425.05;126901;1095;62652;-58
2021/08/09 09:31:36;;;;;;;4.20;3.25;;;;;;;28.04;46.52;97418.50;126934;1095;62592;-58
2021/08/09 09:34:06;;;;;;;3.65;3.25;;;;;;;28.17;46.26;97421.05;127061;1095;62609;-59
2021/08/09 09:36:50;;;;;;;3.47;3.17;;;;;;;28.32;45.95;97416.11;127054;1095;62610;-58
2021/08/09 09:39:33;;;;;;;4.23;3.60;;;;;;;28.44;45.46;97415.41;126990;1093;62642;-58
2021/08/09 09:42:18;;;;;;;4.03;3.63;;;;;;;28.54;45.19;97407.63;127107;1093;62763;-60
2021/08/09 09:44:45;;;;;;;4.55;3.40;;;;;;;28.63;44.80;97408.96;127009;1095;62632;-61
2021/08/09 09:47:26;;;;;;;4.90;3.63;;;;;;;28.71;44.78;97405.15;126945;1093;62613;-58
2021/08/09 09:49:57;;;;;;;3.93;3.53;;;;;;;28.77;44.58;97402.36;126891;1093;62617;-52
2021/08/09 09:52:34;;;;;;;4.07;3.67;;;;;;;28.84;44.20;97399.56;126906;1093;62593;-59
2021/08/09 09:55:04;;;;;;;3.80;3.50;;;;;;;28.90;44.25;97407.56;127019;1093;62831;-59
2021/08/09 09:57:31;;;;;;;3.53;3.20;;;;;;;28.96;43.86;97396.96;126920;1095;62617;-58
2021/08/09 09:59:59;;;;;;;3.87;3.50;;;;;;;29.00;43.42;97398.14;126883;1095;62580;-59
2021/08/09 10:02:26;;;;;;;3.75;3.35;;;;;;;29.07;43.29;97393.47;126872;1093;62623;-59
2021/08/09 10:04:53;;;;;;;3.63;2.90;;;;;;;29.12;43.29;97397.14;126844;1095;62689;-61
2021/08/09 10:07:26;;;;;;;4.27;3.87;;;;;;;29.18;42.91;97395.39;127026;1094;62578;-60
2021/08/09 10:09:54;;;;;;;3.63;3.33;;;;;;;29.24;42.77;97397.15;126939;1095;62624;-61
2021/08/09 10:12:27;;;;;;;3.73;3.37;;;;;;;29.30;42.61;97392.70;127078;1093;62655;-60
2021/08/09 10:14:54;;;;;;;4.47;3.30;;;;;;;29.34;42.46;97392.02;127056;1095;62592;-56
2021/08/09 10:17:25;;;;;;;3.40;3.07;;;;;;;29.40;42.27;97392.98;126953;1095;62604;-59
2021/08/09 10:19:57;;;;;;;3.63;3.20;;;;;;;29.46;42.01;97385.84;126898;1095;62983;-57
2021/08/09 10:22:24;;;;;;;3.90;3.23;;;;;;;29.52;41.87;97387.59;126888;1095;62661;-58
2021/08/09 10:24:53;;;;;;;3.50;2.97;;;;;;;29.56;41.90;97381.55;126686;1095;62646;-56
2021/08/09 10:27:52;;;;;;;3.53;3.00;;;;;;;29.60;41.76;97382.72;127092;1095;62671;-55
2021/08/09 10:30:23;;;;;;;3.67;3.37;;;;;;;29.69;41.49;97380.50;126924;1095;62556;-53
2021/08/09 10:32:56;;;;;;;3.60;3.10;;;;;;;29.77;41.24;97382.84;126900;1093;62754;-55
2021/08/09 10:38:33;;;;;;;3.33;3.03;;;;;;;29.94;41.17;97391.02;127002;1095;62667;-60
2021/08/09 10:41:00;;;;;;;3.67;3.37;;;;;;;30.04;41.42;97393.12;127042;1093;62607;-60
2021/08/09 10:43:28;;;;;;;3.40;2.95;;;;;;;30.13;40.85;97394.39;126931;1095;62604;-53
2021/08/09 10:45:55;;;;;;;3.50;3.13;;;;;;;30.19;40.91;97390.80;127053;1095;62549;-59
2021/08/09 10:48:45;;;;;;;3.90;3.10;;;;;;;30.26;40.55;97387.97;126884;1095;62615;-53
2021/08/09 10:51:12;;;;;;;4.40;3.50;;;;;;;30.33;40.81;97388.67;127006;1095;62621;-58
2021/08/09 10:53:41;;;;;;;4.77;3.70;;;;;;;30.38;40.62;97394.98;126995;1095;62609;-58
2021/08/09 10:56:08;;;;;;;4.28;3.03;;;;;;;30.44;40.36;97394.02;127021;1095;62601;-60
2021/08/09 10:58:44;;;;;;;3.70;3.10;;;;;;;30.50;40.02;97394.11;127088;1095;62786;-59
2021/08/09 11:01:14;;;;;;;4.17;3.30;;;;;;;30.54;39.98;97390.70;126987;1094;62619;-56
2021/08/09 11:04:03;;;;;;;3.50;3.20;;;;;;;30.60;39.69;97386.22;126938;1095;62674;-50
2021/08/09 11:06:56;;;;;;;;;;;;;;;30.65;39.84;97386.34;126832;1095;62616;-56
2021/08/09 11:09:33;;;;;;;3.27;2.90;;;;;;;30.72;39.63;97387.03;127009;1095;62633;-58
2021/08/09 11:12:19;;;;;;;4.83;3.57;;;;;;;30.78;39.66;97394.16;126903;1095;62780;-55
2021/08/09 11:15:06;;;;;;;5.10;3.40;;;;;;;30.85;39.40;97386.75;127018;1095;62609;-58
2021/08/09 11:17:39;;;;;;;3.60;3.30;;;;;;;30.89;39.31;97390.60;127034;1095;62675;-60
2021/08/09 11:20:10;;;;;;;4.53;3.40;;;;;;;30.95;38.92;97386.11;126953;1095;62631;-60
2021/08/09 11:22:42;;;;;;;3.53;3.20;;;;;;;31.04;38.70;97386.55;126863;1093;62540;-53
2021/08/09 11:25:28;;;;;;;3.15;2.85;;;;;;;31.13;38.31;97385.90;127024;1095;62608;-58
2021/08/09 11:28:00;;;;;;;2.85;2.60;;;;;;;31.27;38.19;97382.89;126934;1093;62666;-56
2021/08/09 11:30:39;;;;;;;3.75;2.80;;;;;;;31.40;38.01;97385.30;126894;1095;62573;-56
2021/08/09 11:33:08;;;;;;;3.10;2.80;;;;;;;31.56;37.96;97376.36;126973;1095;62600;-49
2021/08/09 11:35:41;;;;;;;;;;;;;;;31.70;37.24;97374.14;127024;1095;62604;-54
2021/08/09 11:38:08;;;;;;;2.70;2.45;;;;;;;31.86;37.49;97377.93;126858;1093;62700;-56
2021/08/09 11:40:45;;;;;;;3.00;2.30;;;;;;;31.99;37.17;97382.17;126788;1095;62604;-53